createdAt,value
2023-12-23T00:01:20.446Z,97359.48
2023-12-23T00:03:51.924Z,97358.09
2023-12-23T00:06:20.735Z,97357.00
2023-12-23T00:08:51.039Z,97366.67
2023-12-23T00:11:20.842Z,97371.95
2023-12-23T00:13:50.919Z,97380.59
2023-12-23T00:16:20.399Z,97379.83
2023-12-23T00:18:49.427Z,97382.95
2023-12-23T00:21:22.954Z,97384.55
2023-12-23T00:23:52.309Z,97388.00
2023-12-23T00:26:21.906Z,97393.94
2023-12-23T00:28:50.739Z,97393.05
2023-12-23T00:31:19.994Z,97392.75
2023-12-23T00:33:51.674Z,97395.95
2023-12-23T00:36:21.078Z,97398.73
2023-12-23T00:38:50.888Z,97405.40
2023-12-23T00:41:21.016Z,97409.54
2023-12-23T00:43:52.348Z,97418.77
2023-12-23T00:46:21.942Z,97416.72
2023-12-23T00:48:52.915Z,97429.14
2023-12-23T00:51:22.870Z,97433.81
2023-12-23T00:53:51.860Z,97434.27
2023-12-23T00:56:22.757Z,97437.88
2023-12-23T00:58:52.462Z,97447.64
2023-12-23T01:01:21.410Z,97450.40
2023-12-23T01:03:50.491Z,97450.66
2023-12-23T01:06:21.344Z,97461.20
2023-12-23T01:08:50.249Z,97462.92
2023-12-23T01:11:19.109Z,97470.03
2023-12-23T01:13:49.312Z,97473.02
2023-12-23T01:16:18.639Z,97478.41
2023-12-23T01:18:48.429Z,97480.48
2023-12-23T01:21:17.352Z,97476.26
2023-12-23T01:23:46.539Z,97474.38
2023-12-23T01:26:15.661Z,97480.44
2023-12-23T01:28:44.964Z,97482.83
2023-12-23T01:31:15.234Z,97484.23
2023-12-23T01:33:44.919Z,97487.15
2023-12-23T01:36:19.423Z,97492.70
2023-12-23T01:38:48.370Z,97496.73
2023-12-23T01:41:17.432Z,97501.95
2023-12-23T01:43:46.652Z,97507.48
2023-12-23T01:46:16.436Z,97511.41
2023-12-23T01:48:47.210Z,97516.43
2023-12-23T01:51:17.710Z,97515.98
2023-12-23T01:53:47.301Z,97514.83
2023-12-23T01:56:19.391Z,97522.48
2023-12-23T01:58:48.814Z,97526.70
2023-12-23T02:01:17.742Z,97523.86
2023-12-23T02:03:47.722Z,97530.73
2023-12-23T02:06:16.596Z,97532.31
2023-12-23T02:08:46.673Z,97529.86
2023-12-23T02:11:38.136Z,97536.27
2023-12-23T02:14:40.386Z,97537.84
2023-12-23T02:17:36.820Z,97546.69
2023-12-23T02:20:06.838Z,97554.48
2023-12-23T02:22:37.452Z,97567.77
2023-12-23T02:25:07.752Z,97565.75
2023-12-23T02:27:53.048Z,97575.61
2023-12-23T02:30:25.740Z,97582.21
2023-12-23T02:32:56.068Z,97587.53
2023-12-23T02:35:28.541Z,97591.67
2023-12-23T02:37:57.780Z,97593.09
2023-12-23T02:40:27.327Z,97607.79
2023-12-23T02:42:56.951Z,97606.15
2023-12-23T02:45:26.034Z,97610.21
2023-12-23T02:47:55.492Z,97616.14
2023-12-23T02:50:25.187Z,97622.03
2023-12-23T02:52:54.327Z,97621.95
2023-12-23T02:55:24.925Z,97624.20
2023-12-23T02:57:54.548Z,97621.99
2023-12-23T03:00:23.252Z,97621.80
2023-12-23T03:02:53.306Z,97627.23
2023-12-23T03:05:23.302Z,97630.56
2023-12-23T03:07:53.040Z,97637.88
2023-12-23T03:10:22.711Z,97637.13
2023-12-23T03:12:53.348Z,97644.25
2023-12-23T03:15:23.381Z,97644.95
2023-12-23T03:18:20.846Z,97651.84
2023-12-23T03:20:50.492Z,97653.35
2023-12-23T03:23:20.336Z,97660.71
2023-12-23T03:25:49.579Z,97654.09
2023-12-23T03:28:18.380Z,97661.59
2023-12-23T03:30:47.839Z,97664.00
2023-12-23T03:33:17.779Z,97676.56
2023-12-23T03:35:47.584Z,97675.21
2023-12-23T03:38:17.074Z,97684.15
2023-12-23T03:40:51.328Z,97687.67
2023-12-23T03:43:21.548Z,97686.27
2023-12-23T03:45:50.559Z,97699.79
2023-12-23T03:48:20.055Z,97704.05
2023-12-23T03:50:50.006Z,97709.23
2023-12-23T03:53:23.928Z,97716.27
2023-12-23T03:55:52.749Z,97717.80
2023-12-23T03:58:21.427Z,97722.70
2023-12-23T04:00:52.421Z,97719.38
2023-12-23T04:03:22.279Z,97721.46
2023-12-23T04:05:51.901Z,97724.50
2023-12-23T04:08:21.796Z,97728.20
2023-12-23T04:10:52.782Z,97742.51
2023-12-23T04:13:22.885Z,97746.21
2023-12-23T04:15:52.445Z,97751.39
2023-12-23T04:18:24.838Z,97747.14
2023-12-23T04:20:53.757Z,97753.06
2023-12-23T04:23:24.137Z,97758.58
2023-12-23T04:25:53.907Z,97763.23
2023-12-23T04:28:26.450Z,97764.84
2023-12-23T04:31:01.003Z,97765.38
2023-12-23T04:33:30.261Z,97771.06
2023-12-23T04:36:00.180Z,97776.08
2023-12-23T04:38:29.103Z,97781.77
2023-12-23T04:41:02.471Z,97793.59
2023-12-23T04:43:32.276Z,97797.13
2023-12-23T04:46:02.933Z,97799.04
2023-12-23T04:48:32.078Z,97798.14
2023-12-23T04:51:01.962Z,97801.47
2023-12-23T04:53:32.756Z,97808.69
2023-12-23T04:56:02.223Z,97811.23
2023-12-23T04:58:31.264Z,97819.91
2023-12-23T05:01:00.574Z,97821.21
2023-12-23T05:03:35.542Z,97820.66
2023-12-23T05:06:06.875Z,97831.86
2023-12-23T05:08:35.565Z,97829.48
2023-12-23T05:11:04.876Z,97834.57
2023-12-23T05:13:33.820Z,97846.11
2023-12-23T05:16:02.796Z,97854.55
2023-12-23T05:18:33.089Z,97856.33
2023-12-23T05:21:05.117Z,97856.58
2023-12-23T05:23:34.961Z,97869.44
2023-12-23T05:26:04.662Z,97872.23
2023-12-23T05:28:34.549Z,97876.94
2023-12-23T05:31:04.037Z,97880.98
2023-12-23T05:33:34.625Z,97880.84
2023-12-23T05:36:04.478Z,97881.21
2023-12-23T05:38:34.480Z,97879.29
2023-12-23T05:41:04.342Z,97884.52
2023-12-23T05:43:34.395Z,97888.59
2023-12-23T05:46:10.906Z,97897.75
2023-12-23T05:48:39.945Z,97895.06
2023-12-23T05:51:19.234Z,97895.69
2023-12-23T05:53:51.034Z,97894.98
2023-12-23T05:56:23.530Z,97904.12
2023-12-23T05:58:52.407Z,97902.52
2023-12-23T06:01:23.446Z,97904.52
2023-12-23T06:03:52.713Z,97908.21
2023-12-23T06:06:21.779Z,97907.10
2023-12-23T06:08:54.011Z,97908.79
2023-12-23T06:11:24.534Z,97914.88
2023-12-23T06:14:14.156Z,97918.00
2023-12-23T06:17:10.514Z,97914.36
2023-12-23T06:19:53.687Z,97912.83
2023-12-23T06:22:23.126Z,97920.84
2023-12-23T06:24:55.842Z,97915.38
2023-12-23T06:27:24.714Z,97912.59
2023-12-23T06:29:53.613Z,97919.61
2023-12-23T06:32:23.183Z,97915.38
2023-12-23T06:34:53.032Z,97920.88
2023-12-23T06:37:24.244Z,97925.52
2023-12-23T06:39:53.263Z,97929.48
2023-12-23T06:42:22.821Z,97930.31
2023-12-23T06:44:53.570Z,97931.32
2023-12-23T06:47:23.535Z,97934.55
2023-12-23T06:49:53.548Z,97931.12
2023-12-23T06:52:22.486Z,97934.64
2023-12-23T06:55:03.231Z,97936.31
2023-12-23T06:57:32.066Z,97935.20
2023-12-23T07:00:01.074Z,97932.10
2023-12-23T07:02:29.856Z,97934.10
2023-12-23T07:04:59.972Z,97934.74
2023-12-23T07:07:29.940Z,97929.80
2023-12-23T07:10:05.410Z,97925.41
2023-12-23T07:12:40.399Z,97924.83
2023-12-23T07:15:11.123Z,97926.91
2023-12-23T07:18:06.043Z,97922.63
2023-12-23T07:20:35.274Z,97926.13
2023-12-23T07:23:04.392Z,97921.19
2023-12-23T07:25:33.983Z,97917.30
2023-12-23T07:28:03.062Z,97915.05
2023-12-23T07:30:39.853Z,97911.92
2023-12-23T07:33:08.813Z,97913.73
2023-12-23T07:35:38.592Z,97906.05
2023-12-23T07:38:10.422Z,97916.20
2023-12-23T07:40:42.800Z,97916.79
2023-12-23T07:43:11.629Z,97917.23
2023-12-23T07:45:40.641Z,97916.17
2023-12-23T07:48:10.226Z,97921.82
2023-12-23T07:50:39.856Z,97920.30
2023-12-23T07:53:08.819Z,97916.83
2023-12-23T07:55:37.820Z,97918.91
2023-12-23T07:58:08.758Z,97918.83
2023-12-23T08:00:37.864Z,97906.09
2023-12-23T08:03:07.427Z,97910.61
2023-12-23T08:05:36.360Z,97906.73
2023-12-23T08:08:08.892Z,97905.93
2023-12-23T08:10:41.945Z,97903.52
2023-12-23T08:13:12.566Z,97900.81
2023-12-23T08:15:42.846Z,97896.16
2023-12-23T08:19:16.621Z,97887.21
2023-12-23T08:21:47.405Z,97885.35
2023-12-23T08:24:16.477Z,97873.89
2023-12-23T08:26:45.726Z,97861.39
2023-12-23T08:29:16.277Z,97859.36
2023-12-23T08:31:46.272Z,97860.10
2023-12-23T08:34:20.158Z,97865.17
2023-12-23T08:36:50.947Z,97862.16
2023-12-23T08:39:19.872Z,97869.89
2023-12-23T08:41:48.924Z,97867.50
2023-12-23T08:44:25.601Z,97863.56
2023-12-23T08:46:57.088Z,97861.44
2023-12-23T08:49:26.190Z,97862.25
2023-12-23T08:52:15.198Z,97866.46
2023-12-23T08:54:45.345Z,97872.41
2023-12-23T08:57:15.284Z,97876.83
2023-12-23T08:59:45.341Z,97877.48
2023-12-23T09:02:14.993Z,97875.88
2023-12-23T09:04:45.610Z,97880.46
2023-12-23T09:07:16.964Z,97874.96
2023-12-23T09:09:45.610Z,97880.14
2023-12-23T09:12:16.253Z,97873.98
2023-12-23T09:15:06.943Z,97877.84
2023-12-23T09:17:42.498Z,97878.93
2023-12-23T09:20:12.405Z,97882.02
2023-12-23T09:22:41.499Z,97882.75
2023-12-23T09:25:14.593Z,97879.30
2023-12-23T09:27:43.324Z,97877.20
2023-12-23T09:30:13.215Z,97876.16
2023-12-23T09:32:42.152Z,97869.47
2023-12-23T09:35:12.443Z,97869.73
2023-12-23T09:37:41.496Z,97868.24
2023-12-23T09:40:15.852Z,97868.50
2023-12-23T09:42:45.138Z,97869.73
2023-12-23T09:45:20.902Z,97866.90
2023-12-23T09:47:52.923Z,97867.43
2023-12-23T09:50:22.930Z,97861.58
2023-12-23T09:52:57.482Z,97855.85
2023-12-23T09:55:32.346Z,97847.40
2023-12-23T09:58:02.700Z,97848.14
2023-12-23T10:00:37.468Z,97851.17
2023-12-23T10:03:09.565Z,97844.81
2023-12-23T10:05:46.977Z,97847.92
2023-12-23T10:08:16.066Z,97843.73
2023-12-23T10:10:49.294Z,97840.70
2023-12-23T10:13:36.090Z,97839.07
2023-12-23T10:16:09.973Z,97838.51
2023-12-23T10:19:26.470Z,97833.48
2023-12-23T10:21:57.741Z,97836.23
2023-12-23T10:25:05.867Z,97839.17
2023-12-23T10:27:40.239Z,97842.05
2023-12-23T10:30:15.107Z,97844.95
2023-12-23T10:32:50.947Z,97837.69
2023-12-23T10:35:50.558Z,97841.80
2023-12-23T10:38:39.171Z,97838.32
2023-12-23T10:41:27.881Z,97839.71
2023-12-23T10:44:01.306Z,97832.94
2023-12-23T10:47:29.278Z,97845.46
2023-12-23T10:50:41.987Z,97839.31
2023-12-23T10:53:17.582Z,97840.08
2023-12-23T10:59:10.076Z,97842.04
2023-12-23T11:02:36.328Z,97840.25
2023-12-23T11:06:07.014Z,97838.17
2023-12-23T11:09:02.402Z,97831.66
2023-12-23T11:11:38.201Z,97838.79
2023-12-23T11:14:27.429Z,97839.04
2023-12-23T11:18:39.607Z,97839.66
2023-12-23T11:21:22.457Z,97846.74
2023-12-23T11:24:14.187Z,97844.62
2023-12-23T11:27:13.943Z,97842.95
2023-12-23T11:29:42.836Z,97849.93
2023-12-23T11:32:34.614Z,97847.54
2023-12-23T11:35:41.340Z,97854.77
2023-12-23T11:38:26.529Z,97852.55
2023-12-23T11:41:04.399Z,97856.53
2023-12-23T11:43:41.497Z,97851.82
2023-12-23T11:46:16.890Z,97854.73
2023-12-23T11:48:49.486Z,97854.42
2023-12-23T11:51:32.035Z,97852.09
2023-12-23T11:54:23.134Z,97851.54
2023-12-23T11:57:07.525Z,97858.45
2023-12-23T11:59:57.755Z,97857.36
2023-12-23T12:02:48.946Z,97865.30
2023-12-23T12:05:19.380Z,97861.38
2023-12-23T12:07:49.257Z,97867.13
2023-12-23T12:10:25.646Z,97868.79
2023-12-23T12:12:58.394Z,97862.14
2023-12-23T12:15:52.529Z,97866.59
2023-12-23T12:18:59.767Z,97866.12
2023-12-23T12:21:49.826Z,97865.95
2023-12-23T12:24:21.252Z,97858.63
2023-12-23T12:27:13.447Z,97861.21
2023-12-23T12:29:45.496Z,97855.17
2023-12-23T12:35:48.867Z,97861.32
2023-12-23T12:38:24.153Z,97859.29
2023-12-23T12:41:16.700Z,97866.56
2023-12-23T12:43:58.781Z,97871.96
2023-12-23T12:46:52.209Z,97877.69
2023-12-23T12:49:25.792Z,97881.16
2023-12-23T12:52:24.146Z,97893.21
2023-12-23T12:55:08.298Z,97887.36
2023-12-23T12:58:03.956Z,97896.54
2023-12-23T13:00:49.568Z,97886.90
2023-12-23T13:03:49.147Z,97897.98
2023-12-23T13:06:58.082Z,97906.81
2023-12-23T13:09:53.373Z,97915.83
2023-12-23T13:12:40.221Z,97923.83
2023-12-23T13:15:13.029Z,97928.58
2023-12-23T13:17:46.901Z,97938.56
2023-12-23T13:20:38.388Z,97946.20
2023-12-23T13:23:34.151Z,97946.61
2023-12-23T13:26:07.323Z,97953.00
2023-12-23T13:29:21.450Z,97957.92
2023-12-23T13:32:19.415Z,97953.80
2023-12-23T13:35:10.019Z,97959.06
2023-12-23T13:38:20.114Z,97967.41
2023-12-23T13:40:56.717Z,97968.12
2023-12-23T13:44:07.930Z,97966.59
2023-12-23T13:47:02.096Z,97973.48
2023-12-23T13:50:30.016Z,97974.17
2023-12-23T13:53:22.098Z,97981.73
2023-12-23T13:56:19.544Z,97988.98
2023-12-23T13:59:30.062Z,97998.52
2023-12-23T14:02:20.642Z,98004.98
2023-12-23T14:05:38.937Z,98010.14
2023-12-23T14:08:59.013Z,98017.77
2023-12-23T14:11:39.168Z,98024.67
2023-12-23T14:14:09.907Z,98022.30
2023-12-23T14:17:04.765Z,98026.08
2023-12-23T14:19:37.107Z,98038.95
2023-12-23T14:22:09.237Z,98039.90
2023-12-23T14:24:42.917Z,98046.16
2023-12-23T14:27:19.550Z,98054.13
2023-12-23T14:30:15.071Z,98062.30
2023-12-23T14:32:44.609Z,98065.17
2023-12-23T14:35:46.194Z,98069.05
2023-12-23T14:39:05.471Z,98075.28
2023-12-23T14:41:57.927Z,98083.27
2023-12-23T14:44:30.903Z,98091.54
2023-12-23T14:47:39.877Z,98089.91
2023-12-23T14:50:15.462Z,98090.80
2023-12-23T14:52:53.992Z,98096.28
2023-12-23T14:55:25.057Z,98099.54
2023-12-23T14:58:15.860Z,98102.10
2023-12-23T15:00:47.799Z,98104.30
2023-12-23T15:03:20.511Z,98102.73
2023-12-23T15:05:50.512Z,98115.55
2023-12-23T15:11:55.430Z,98119.90
2023-12-23T15:15:14.002Z,98124.92
2023-12-23T15:17:45.532Z,98137.73
2023-12-23T15:20:20.949Z,98134.52
2023-12-23T15:22:56.988Z,98140.14
2023-12-23T15:25:47.371Z,98150.44
2023-12-23T15:28:17.539Z,98156.47
2023-12-23T15:31:07.097Z,98166.91
2023-12-23T15:34:19.784Z,98174.83
2023-12-23T15:37:16.334Z,98176.02
2023-12-23T15:40:27.356Z,98176.16
2023-12-23T15:43:17.223Z,98181.79
2023-12-23T15:45:50.016Z,98181.05
2023-12-23T15:48:20.236Z,98191.46
2023-12-23T15:50:49.145Z,98188.55
2023-12-23T15:53:45.494Z,98188.80
2023-12-23T15:56:20.861Z,98188.96
2023-12-23T15:58:51.074Z,98190.39
2023-12-23T16:01:23.614Z,98192.12
2023-12-23T16:04:19.817Z,98195.05
2023-12-23T16:06:54.044Z,98206.18
2023-12-23T16:09:28.641Z,98205.55
2023-12-23T16:11:58.098Z,98208.50
2023-12-23T16:14:29.048Z,98209.88
2023-12-23T16:17:22.848Z,98210.90
2023-12-23T16:19:52.006Z,98210.73
2023-12-23T16:22:58.042Z,98212.09
2023-12-23T16:26:26.957Z,98212.63
2023-12-23T16:29:15.562Z,98222.98
2023-12-23T16:31:44.400Z,98231.14
2023-12-23T16:34:15.105Z,98232.38
2023-12-23T16:36:46.301Z,98232.36
2023-12-23T16:39:35.578Z,98240.81
2023-12-23T16:42:08.011Z,98249.65
2023-12-23T16:44:38.904Z,98255.16
2023-12-23T16:47:07.760Z,98258.80
2023-12-23T16:50:03.900Z,98262.55
2023-12-23T16:52:46.568Z,98262.02
2023-12-23T16:55:15.616Z,98268.16
2023-12-23T16:57:46.272Z,98275.59
2023-12-23T17:00:22.046Z,98278.98
2023-12-23T17:02:52.762Z,98280.83
2023-12-23T17:05:22.366Z,98284.48
2023-12-23T17:07:57.435Z,98286.46
2023-12-23T17:10:51.354Z,98282.37
2023-12-23T17:13:26.345Z,98286.30
2023-12-23T17:16:42.398Z,98288.92
2023-12-23T17:19:14.192Z,98287.75
2023-12-23T17:21:44.129Z,98291.33
2023-12-23T17:24:13.922Z,98293.63
2023-12-23T17:30:20.173Z,98294.55
2023-12-23T17:32:54.186Z,98296.45
2023-12-23T17:35:24.908Z,98289.48
2023-12-23T17:37:59.916Z,98294.45
2023-12-23T17:40:33.548Z,98303.19
2023-12-23T17:43:02.624Z,98307.59
2023-12-23T17:45:33.180Z,98313.86
2023-12-23T17:48:07.085Z,98317.52
2023-12-23T17:50:48.833Z,98326.46
2023-12-23T17:53:22.838Z,98326.13
2023-12-23T17:55:55.676Z,98331.13
2023-12-23T17:58:35.426Z,98338.65
2023-12-23T18:01:20.992Z,98343.17
2023-12-23T18:03:52.409Z,98351.28
2023-12-23T18:06:42.885Z,98353.73
2023-12-23T18:09:35.258Z,98355.48
2023-12-23T18:12:09.770Z,98357.27
2023-12-23T18:14:41.274Z,98361.63
2023-12-23T18:17:11.393Z,98356.59
2023-12-23T18:19:48.035Z,98359.24
2023-12-23T18:22:41.468Z,98358.67
2023-12-23T18:25:10.410Z,98360.35
2023-12-23T18:27:59.347Z,98358.43
2023-12-23T18:30:32.162Z,98351.08
2023-12-23T18:33:04.767Z,98360.77
2023-12-23T18:35:37.301Z,98361.95
2023-12-23T18:38:06.907Z,98363.83
2023-12-23T18:40:48.657Z,98357.80
2023-12-23T18:43:19.516Z,98360.99
2023-12-23T18:45:49.380Z,98360.14
2023-12-23T18:48:23.860Z,98364.27
2023-12-23T18:50:54.313Z,98362.86
2023-12-23T18:53:23.728Z,98366.48
2023-12-23T18:55:53.438Z,98370.86
2023-12-23T18:58:46.204Z,98370.42
2023-12-23T19:01:21.824Z,98377.43
2023-12-23T19:03:51.984Z,98379.11
2023-12-23T19:06:22.331Z,98379.23
2023-12-23T19:08:51.426Z,98385.14
2023-12-23T19:11:20.271Z,98384.38
2023-12-23T19:13:50.425Z,98380.36
2023-12-23T19:16:20.262Z,98377.00
2023-12-23T19:19:18.619Z,98379.02
2023-12-23T19:21:49.457Z,98382.89
2023-12-23T19:24:18.963Z,98387.45
2023-12-23T19:26:48.944Z,98388.77
2023-12-23T19:29:20.971Z,98390.80
2023-12-23T19:32:07.139Z,98395.02
2023-12-23T19:34:50.133Z,98399.23
2023-12-23T19:37:46.860Z,98404.52
2023-12-23T19:40:17.071Z,98413.21
2023-12-23T19:42:47.711Z,98409.16
2023-12-23T19:45:20.329Z,98415.05
2023-12-23T19:48:25.016Z,98416.58
2023-12-23T19:51:35.844Z,98423.15
2023-12-23T19:54:31.623Z,98427.25
2023-12-23T19:57:04.166Z,98436.96
2023-12-23T19:59:50.779Z,98435.25
2023-12-23T20:02:22.044Z,98431.29
2023-12-23T20:04:51.327Z,98435.48
2023-12-23T20:07:21.598Z,98442.78
2023-12-23T20:10:03.052Z,98447.88
2023-12-23T20:12:45.741Z,98452.12
2023-12-23T20:15:15.137Z,98464.08
2023-12-23T20:18:40.588Z,98464.42
2023-12-23T20:21:09.572Z,98468.66
2023-12-23T20:24:00.521Z,98476.84
2023-12-23T20:26:29.958Z,98465.21
2023-12-23T20:29:02.097Z,98467.92
2023-12-23T20:31:31.789Z,98474.46
2023-12-23T20:34:04.511Z,98480.48
2023-12-23T20:36:39.418Z,98485.29
2023-12-23T20:39:11.323Z,98490.75
2023-12-23T20:41:43.072Z,98494.81
2023-12-23T20:44:14.149Z,98495.09
2023-12-23T20:47:04.393Z,98498.44
2023-12-23T20:49:34.309Z,98497.69
2023-12-23T20:52:07.703Z,98496.86
2023-12-23T20:54:40.047Z,98495.08
2023-12-23T20:57:12.276Z,98497.80
2023-12-23T20:59:45.651Z,98496.25
2023-12-23T21:02:15.457Z,98489.53
2023-12-23T21:04:45.507Z,98488.77
2023-12-23T21:07:14.697Z,98491.30
2023-12-23T21:09:43.894Z,98495.42
2023-12-23T21:12:17.643Z,98497.98
2023-12-23T21:14:49.898Z,98501.25
2023-12-23T21:17:56.973Z,98508.42
2023-12-23T21:20:27.247Z,98507.41
2023-12-23T21:23:00.769Z,98511.34
2023-12-23T21:25:31.866Z,98520.20
2023-12-23T21:28:11.358Z,98524.45
2023-12-23T21:30:42.569Z,98530.25
2023-12-23T21:33:11.417Z,98530.09
2023-12-23T21:35:42.067Z,98538.28
2023-12-23T21:38:14.114Z,98532.98
2023-12-23T21:40:45.537Z,98535.13
2023-12-23T21:43:16.373Z,98538.72
2023-12-23T21:45:45.661Z,98542.64
2023-12-23T21:48:25.786Z,98540.23
2023-12-23T21:51:00.292Z,98542.08
2023-12-23T21:53:29.993Z,98540.04
2023-12-23T21:55:59.320Z,98543.11
2023-12-23T21:58:28.260Z,98535.08
2023-12-23T22:00:57.704Z,98536.98
2023-12-23T22:03:27.753Z,98545.52
2023-12-23T22:05:57.923Z,98543.98
2023-12-23T22:08:29.070Z,98542.62
2023-12-23T22:10:58.445Z,98551.85
2023-12-23T22:13:29.119Z,98554.92
2023-12-23T22:15:59.736Z,98557.36
2023-12-23T22:18:37.054Z,98565.10
2023-12-23T22:21:06.392Z,98569.01
2023-12-23T22:23:36.636Z,98572.91
2023-12-23T22:26:05.837Z,98575.40
2023-12-23T22:28:36.803Z,98576.89
2023-12-23T22:31:07.311Z,98581.52
2023-12-23T22:33:37.477Z,98579.26
2023-12-23T22:36:12.472Z,98583.28
2023-12-23T22:38:41.988Z,98584.77
2023-12-23T22:41:13.560Z,98591.61
2023-12-23T22:43:42.874Z,98594.51
2023-12-23T22:46:13.433Z,98595.66
2023-12-23T22:48:42.463Z,98599.20
2023-12-23T22:51:12.114Z,98597.92
2023-12-23T22:53:42.599Z,98599.13
2023-12-23T22:56:12.223Z,98598.61
2023-12-23T22:58:41.032Z,98604.07
2023-12-23T23:01:17.528Z,98606.27
2023-12-23T23:03:47.814Z,98602.70
2023-12-23T23:06:17.450Z,98605.08
2023-12-23T23:08:46.046Z,98616.37
2023-12-23T23:11:15.607Z,98621.04
2023-12-23T23:13:45.128Z,98626.98
2023-12-23T23:16:14.425Z,98627.10
2023-12-23T23:19:22.233Z,98633.73
2023-12-23T23:21:51.908Z,98643.42
2023-12-23T23:24:21.419Z,98645.14
2023-12-23T23:26:50.877Z,98644.77
2023-12-23T23:29:20.348Z,98644.91
2023-12-23T23:31:50.758Z,98644.30
2023-12-23T23:34:19.964Z,98647.63
2023-12-23T23:36:49.714Z,98648.97
2023-12-23T23:39:20.494Z,98650.67
2023-12-23T23:41:49.874Z,98654.75
2023-12-23T23:44:18.904Z,98659.13
2023-12-23T23:46:48.422Z,98660.79
2023-12-23T23:49:18.485Z,98662.45
2023-12-23T23:51:48.679Z,98663.27
2023-12-23T23:54:17.626Z,98660.02
2023-12-23T23:56:47.943Z,98663.08
2023-12-23T23:59:16.862Z,98662.22
